Petersburg, Tennessee
Current Conditions -  °F | °C
As of 12:35 AM on Friday 31 Oct 2014 (Local Time) from KFYM Reporting Station
Clear Clear  
Wind Chill: 40°   Ceiling: Unl
Heat Index: 45°   Visibility: 10mi
Dew Point: 39°   Wind: 8mph
Humidity: 81%   Direction: 10°N
Pressure: 30.02"   Gusts: 329mph
Location:  35.32°N, 86.64°W
Report Text: KFYM 310535Z AUTO 01007G286KT 10SM CLR 07/04 A3002 RMK
Loading
Personal Weather Stations






























Interactive Weather Map
Tropical Storm Tracking
New forecast layout! Learn more

10-Day Weather Forecast

Advertisements
Track Severe Weather on mobile